MV Finola — OULQ2 — position and weather

sailwx.info

Track history (hours):
 
Tides and Currents Weather Stations Pressure Air Temp Water Temp Dewpoint Dewpoint Depression Visibility Wind Speed Wind Dir Waves Ship Positions

MV Finola

Last reported at 2016-Jun-09 09:32 UTC. Time now 2016-Jun-24 20:28 UTC.
Position N 37°10' E 124°45'.
Warning: this ship's position is 15 days out of date.

Length 85 m; draft 3.2 m.

Type: Cargo ship. MMSI: 219483000.

Date/timePositionNaut miles runAvg speedWind from/ knotsBaromVisibWave heightAir tempDewpointWater temp
2016-Jun-09 09:32N 37°10' E 124°45'2511.2
2016-Jun-09 07:17N 37°20' E 124°15'810.8
2016-Jun-09 06:33N 37°23' E 124°06'1010.3
2016-Jun-09 05:32N 37°27' E 123°54'14911.5
2016-Jun-08 16:32N 38°29' E 121°02'3012.5
2016-Jun-08 14:07N 38°38' E 120°26'712.8
2016-Jun-08 13:33N 38°39' E 120°16'1413.1
2016-Jun-08 12:28N 38°41' E 119°58'1213.1
2016-Jun-08 11:33N 38°42' E 119°43'1312.8
2016-Jun-08 10:33N 38°43' E 119°27'1612.2
2016-Jun-08 09:14N 38°45' E 119°06'5610.8
2016-Jun-08 04:04N 38°57' E 117°56'611.5
2016-Jun-08 03:33N 38°58' E 117°49'3 2.1
2016-Jun-08 02:22N 38°59' E 117°46'0 0.0
2016-Jun-08 01:22N 38°59' E 117°46'0 0.0
2016-Jun-08 00:16N 38°59' E 117°46'0 0.0
2016-Jun-07 23:33N 38°59' E 117°46'0 0.0
2016-Jun-07 21:33N 38°59' E 117°46'0 0.0
2016-Jun-07 20:33N 38°59' E 117°46'0 0.0
2016-Jun-07 19:27N 38°59' E 117°46'0 0.0
2016-Jun-07 18:27N 38°59' E 117°46'0 0.0
2016-Jun-07 17:27N 38°59' E 117°46'0 0.0
2016-Jun-07 16:21N 38°59' E 117°46'0 0.0
2016-Jun-07 15:33N 38°59' E 117°46'0 0.0
2016-Jun-07 14:27N 38°59' E 117°46'0 0.0
2016-Jun-07 13:33N 38°59' E 117°46'0 0.0
2016-Jun-07 12:27N 38°59' E 117°46'0 0.0
2016-Jun-07 11:27N 38°59' E 117°46'0 0.0
2016-Jun-07 10:33N 38°59' E 117°46'0 0.0
2016-Jun-07 09:33N 38°59' E 117°46'0 0.0
2016-Jun-07 08:33N 38°59' E 117°46'112 8.0
2016-Jun-06 18:28N 38°18' E 119°59'1111.8
2016-Jun-06 17:33N 38°13' E 120°11'1211.7
2016-Jun-06 16:34N 38°07' E 120°24'1212.0
2016-Jun-06 15:34N 38°03' E 120°38'1111.5
2016-Jun-06 14:34N 38°00' E 120°53'7111.7
2016-Jun-06 08:31N 37°40' E 122°18'38 9.6
2016-Jun-06 04:34N 37°13' E 122°53'1110.0
2016-Jun-06 03:30N 37°03' E 122°56'  
Track history (hours):
 
Tides and Currents Weather Stations Pressure Air Temp Water Temp Dewpoint Dewpoint Depression Visibility Wind Speed Wind Dir Waves Ship Positions

MV Finola

Last reported at 2016-Jun-09 09:32 UTC. Time now 2016-Jun-24 20:28 UTC.
Position N 37°10' E 124°45'.
Warning: this ship's position is 15 days out of date.

Length 85 m; draft 3.2 m.

Type: Cargo ship. MMSI: 219483000.

Date/timePositionNaut miles runAvg speedWind from/ knotsBaromVisibWave heightAir tempDewpointWater temp
2016-Jun-09 09:32N 37°10' E 124°45'2511.2
2016-Jun-09 07:17N 37°20' E 124°15'810.8
2016-Jun-09 06:33N 37°23' E 124°06'1010.3
2016-Jun-09 05:32N 37°27' E 123°54'14911.5
2016-Jun-08 16:32N 38°29' E 121°02'3012.5
2016-Jun-08 14:07N 38°38' E 120°26'712.8
2016-Jun-08 13:33N 38°39' E 120°16'1413.1
2016-Jun-08 12:28N 38°41' E 119°58'1213.1
2016-Jun-08 11:33N 38°42' E 119°43'1312.8
2016-Jun-08 10:33N 38°43' E 119°27'1612.2
2016-Jun-08 09:14N 38°45' E 119°06'5610.8
2016-Jun-08 04:04N 38°57' E 117°56'611.5
2016-Jun-08 03:33N 38°58' E 117°49'3 2.1
2016-Jun-08 02:22N 38°59' E 117°46'0 0.0
2016-Jun-08 01:22N 38°59' E 117°46'0 0.0
2016-Jun-08 00:16N 38°59' E 117°46'0 0.0
2016-Jun-07 23:33N 38°59' E 117°46'0 0.0
2016-Jun-07 21:33N 38°59' E 117°46'0 0.0
2016-Jun-07 20:33N 38°59' E 117°46'0 0.0
2016-Jun-07 19:27N 38°59' E 117°46'0 0.0
2016-Jun-07 18:27N 38°59' E 117°46'0 0.0
2016-Jun-07 17:27N 38°59' E 117°46'0 0.0
2016-Jun-07 16:21N 38°59' E 117°46'0 0.0
2016-Jun-07 15:33N 38°59' E 117°46'0 0.0
2016-Jun-07 14:27N 38°59' E 117°46'0 0.0
2016-Jun-07 13:33N 38°59' E 117°46'0 0.0
2016-Jun-07 12:27N 38°59' E 117°46'0 0.0
2016-Jun-07 11:27N 38°59' E 117°46'0 0.0
2016-Jun-07 10:33N 38°59' E 117°46'0 0.0
2016-Jun-07 09:33N 38°59' E 117°46'0 0.0
2016-Jun-07 08:33N 38°59' E 117°46'112 8.0
2016-Jun-06 18:28N 38°18' E 119°59'1111.8
2016-Jun-06 17:33N 38°13' E 120°11'1211.7
2016-Jun-06 16:34N 38°07' E 120°24'1212.0
2016-Jun-06 15:34N 38°03' E 120°38'1111.5
2016-Jun-06 14:34N 38°00' E 120°53'7111.7
2016-Jun-06 08:31N 37°40' E 122°18'38 9.6
2016-Jun-06 04:34N 37°13' E 122°53'1110.0
2016-Jun-06 03:30N 37°03' E 122°56'  

Dump ship's entire track history